sensor_id;sensor_type;location;lat;lon;timestamp;temperature;humidity
32753;DHT22;19121;52.428;10.816;2023-04-05T00:02:20;19.30;39.50
32753;DHT22;19121;52.428;10.816;2023-04-05T00:04:45;19.30;39.50
32753;DHT22;19121;52.428;10.816;2023-04-05T00:07:21;19.30;39.50
32753;DHT22;19121;52.428;10.816;2023-04-05T00:09:47;19.30;39.50
32753;DHT22;19121;52.428;10.816;2023-04-05T00:12:12;19.30;39.50
32753;DHT22;19121;52.428;10.816;2023-04-05T00:14:38;19.20;39.40
32753;DHT22;19121;52.428;10.816;2023-04-05T00:17:03;19.20;39.40
32753;DHT22;19121;52.428;10.816;2023-04-05T00:19:29;19.30;39.50
32753;DHT22;19121;52.428;10.816;2023-04-05T00:21:58;19.20;39.40
32753;DHT22;19121;52.428;10.816;2023-04-05T00:24:24;19.20;39.40
32753;DHT22;19121;52.428;10.816;2023-04-05T00:26:49;19.20;39.40
32753;DHT22;19121;52.428;10.816;2023-04-05T00:29:15;19.20;40.00
32753;DHT22;19121;52.428;10.816;2023-04-05T00:31:40;19.20;39.50
32753;DHT22;19121;52.428;10.816;2023-04-05T00:34:06;19.20;39.40
32753;DHT22;19121;52.428;10.816;2023-04-05T00:36:33;19.20;39.50
32753;DHT22;19121;52.428;10.816;2023-04-05T00:38:59;19.20;39.40
32753;DHT22;19121;52.428;10.816;2023-04-05T00:41:24;19.20;39.40
32753;DHT22;19121;52.428;10.816;2023-04-05T00:43:49;19.20;39.40
32753;DHT22;19121;52.428;10.816;2023-04-05T00:46:15;19.20;39.50
32753;DHT22;19121;52.428;10.816;2023-04-05T00:48:41;19.20;39.40
32753;DHT22;19121;52.428;10.816;2023-04-05T00:51:06;19.20;39.40
32753;DHT22;19121;52.428;10.816;2023-04-05T00:53:36;19.10;39.40
32753;DHT22;19121;52.428;10.816;2023-04-05T00:56:02;19.20;39.50
32753;DHT22;19121;52.428;10.816;2023-04-05T00:58:28;19.20;39.50
32753;DHT22;19121;52.428;10.816;2023-04-05T01:00:56;19.10;39.40
32753;DHT22;19121;52.428;10.816;2023-04-05T01:03:24;19.20;39.50
32753;DHT22;19121;52.428;10.816;2023-04-05T01:05:59;19.10;39.40
32753;DHT22;19121;52.428;10.816;2023-04-05T01:08:28;19.10;39.40
32753;DHT22;19121;52.428;10.816;2023-04-05T01:10:58;19.10;39.40
32753;DHT22;19121;52.428;10.816;2023-04-05T01:13:24;19.10;39.50
32753;DHT22;19121;52.428;10.816;2023-04-05T01:15:50;19.10;39.40
32753;DHT22;19121;52.428;10.816;2023-04-05T01:18:15;19.10;39.40
32753;DHT22;19121;52.428;10.816;2023-04-05T01:20:44;19.10;39.50
32753;DHT22;19121;52.428;10.816;2023-04-05T01:28:34;19.10;39.40
32753;DHT22;19121;52.428;10.816;2023-04-05T01:31:19;19.10;39.40
32753;DHT22;19121;52.428;10.816;2023-04-05T01:33:48;19.10;39.40
32753;DHT22;19121;52.428;10.816;2023-04-05T01:36:23;19.10;39.40
32753;DHT22;19121;52.428;10.816;2023-04-05T01:38:51;19.10;39.40
32753;DHT22;19121;52.428;10.816;2023-04-05T01:41:17;19.10;39.40
32753;DHT22;19121;52.428;10.816;2023-04-05T01:43:43;19.10;39.40
32753;DHT22;19121;52.428;10.816;2023-04-05T01:46:08;19.10;39.40
32753;DHT22;19121;52.428;10.816;2023-04-05T01:48:34;19.00;39.30
32753;DHT22;19121;52.428;10.816;2023-04-05T01:50:59;19.00;39.30
32753;DHT22;19121;52.428;10.816;2023-04-05T01:53:25;19.00;39.30
32753;DHT22;19121;52.428;10.816;2023-04-05T01:55:50;19.00;39.30
32753;DHT22;19121;52.428;10.816;2023-04-05T01:58:15;19.00;39.30
32753;DHT22;19121;52.428;10.816;2023-04-05T02:00:41;19.00;39.30
32753;DHT22;19121;52.428;10.816;2023-04-05T02:03:06;19.00;39.30
32753;DHT22;19121;52.428;10.816;2023-04-05T02:05:32;19.00;39.30
32753;DHT22;19121;52.428;10.816;2023-04-05T02:07:57;19.00;39.30
32753;DHT22;19121;52.428;10.816;2023-04-05T02:10:23;19.00;39.30
32753;DHT22;19121;52.428;10.816;2023-04-05T02:12:48;19.00;39.20
32753;DHT22;19121;52.428;10.816;2023-04-05T02:15:14;19.00;39.10
32753;DHT22;19121;52.428;10.816;2023-04-05T02:17:39;19.00;39.10
32753;DHT22;19121;52.428;10.816;2023-04-05T02:20:10;19.00;39.20
32753;DHT22;19121;52.428;10.816;2023-04-05T02:22:36;19.00;39.20
32753;DHT22;19121;52.428;10.816;2023-04-05T02:25:04;19.00;39.30
32753;DHT22;19121;52.428;10.816;2023-04-05T02:27:30;19.00;39.30
32753;DHT22;19121;52.428;10.816;2023-04-05T02:29:56;19.00;39.20
32753;DHT22;19121;52.428;10.816;2023-04-05T02:32:22;19.00;39.30
32753;DHT22;19121;52.428;10.816;2023-04-05T02:34:47;19.00;39.30
32753;DHT22;19121;52.428;10.816;2023-04-05T02:37:12;19.00;39.30
32753;DHT22;19121;52.428;10.816;2023-04-05T02:39:38;19.10;39.30
32753;DHT22;19121;52.428;10.816;2023-04-05T02:42:03;19.00;39.20
32753;DHT22;19121;52.428;10.816;2023-04-05T02:44:29;19.00;39.20
32753;DHT22;19121;52.428;10.816;2023-04-05T02:46:55;19.00;39.20
32753;DHT22;19121;52.428;10.816;2023-04-05T02:49:20;19.00;39.20
32753;DHT22;19121;52.428;10.816;2023-04-05T02:51:45;19.00;39.20
32753;DHT22;19121;52.428;10.816;2023-04-05T02:54:11;19.10;39.20
32753;DHT22;19121;52.428;10.816;2023-04-05T02:56:36;19.00;39.20
32753;DHT22;19121;52.428;10.816;2023-04-05T02:59:02;19.10;39.20
32753;DHT22;19121;52.428;10.816;2023-04-05T03:01:28;19.00;39.10
32753;DHT22;19121;52.428;10.816;2023-04-05T03:03:53;19.10;39.10
32753;DHT22;19121;52.428;10.816;2023-04-05T03:06:19;19.00;39.10
32753;DHT22;19121;52.428;10.816;2023-04-05T03:08:44;19.10;39.10
32753;DHT22;19121;52.428;10.816;2023-04-05T03:11:10;19.00;39.10
32753;DHT22;19121;52.428;10.816;2023-04-05T03:13:36;19.10;39.10
32753;DHT22;19121;52.428;10.816;2023-04-05T03:16:01;19.00;39.00
32753;DHT22;19121;52.428;10.816;2023-04-05T03:18:27;19.10;39.00
32753;DHT22;19121;52.428;10.816;2023-04-05T03:20:54;19.10;39.00
32753;DHT22;19121;52.428;10.816;2023-04-05T03:23:23;19.10;39.00
32753;DHT22;19121;52.428;10.816;2023-04-05T03:25:53;19.00;38.90
32753;DHT22;19121;52.428;10.816;2023-04-05T03:28:19;19.00;38.90
32753;DHT22;19121;52.428;10.816;2023-04-05T03:30:45;19.10;38.90
32753;DHT22;19121;52.428;10.816;2023-04-05T03:33:10;19.00;39.50
32753;DHT22;19121;52.428;10.816;2023-04-05T03:35:36;19.10;38.90
32753;DHT22;19121;52.428;10.816;2023-04-05T03:38:01;19.00;38.80
32753;DHT22;19121;52.428;10.816;2023-04-05T03:40:26;19.00;38.80
32753;DHT22;19121;52.428;10.816;2023-04-05T03:42:52;19.10;38.80
32753;DHT22;19121;52.428;10.816;2023-04-05T03:45:18;19.00;38.80
32753;DHT22;19121;52.428;10.816;2023-04-05T03:47:43;19.00;38.80
32753;DHT22;19121;52.428;10.816;2023-04-05T03:50:09;19.00;38.80
32753;DHT22;19121;52.428;10.816;2023-04-05T03:52:34;19.00;38.70
32753;DHT22;19121;52.428;10.816;2023-04-05T03:55:00;19.00;38.70
32753;DHT22;19121;52.428;10.816;2023-04-05T03:57:26;19.00;38.70
32753;DHT22;19121;52.428;10.816;2023-04-05T03:59:53;19.00;38.70
32753;DHT22;19121;52.428;10.816;2023-04-05T04:02:18;19.00;38.70
32753;DHT22;19121;52.428;10.816;2023-04-05T04:04:44;19.00;38.60
32753;DHT22;19121;52.428;10.816;2023-04-05T04:07:10;19.00;38.70
32753;DHT22;19121;52.428;10.816;2023-04-05T04:09:35;19.00;38.70
32753;DHT22;19121;52.428;10.816;2023-04-05T04:12:01;19.00;38.70
32753;DHT22;19121;52.428;10.816;2023-04-05T04:14:26;19.00;38.60
32753;DHT22;19121;52.428;10.816;2023-04-05T04:16:51;19.00;38.70
32753;DHT22;19121;52.428;10.816;2023-04-05T04:19:17;19.00;38.60
32753;DHT22;19121;52.428;10.816;2023-04-05T04:21:42;19.00;38.70
32753;DHT22;19121;52.428;10.816;2023-04-05T04:24:10;19.00;38.70
32753;DHT22;19121;52.428;10.816;2023-04-05T04:26:46;19.00;38.60
32753;DHT22;19121;52.428;10.816;2023-04-05T04:29:11;19.00;38.60
32753;DHT22;19121;52.428;10.816;2023-04-05T04:31:42;19.00;38.70
32753;DHT22;19121;52.428;10.816;2023-04-05T04:34:12;19.00;38.60
32753;DHT22;19121;52.428;10.816;2023-04-05T04:36:39;19.00;38.60
32753;DHT22;19121;52.428;10.816;2023-04-05T04:39:09;19.00;38.60
32753;DHT22;19121;52.428;10.816;2023-04-05T04:41:38;19.00;38.60
32753;DHT22;19121;52.428;10.816;2023-04-05T04:44:08;19.00;38.60
32753;DHT22;19121;52.428;10.816;2023-04-05T04:46:38;19.00;38.60
32753;DHT22;19121;52.428;10.816;2023-04-05T04:49:08;19.00;38.70
32753;DHT22;19121;52.428;10.816;2023-04-05T04:51:35;19.00;38.60
32753;DHT22;19121;52.428;10.816;2023-04-05T04:54:01;19.00;38.60
32753;DHT22;19121;52.428;10.816;2023-04-05T04:56:26;19.00;38.70
32753;DHT22;19121;52.428;10.816;2023-04-05T04:58:53;19.00;38.50
32753;DHT22;19121;52.428;10.816;2023-04-05T05:01:19;19.00;38.60
32753;DHT22;19121;52.428;10.816;2023-04-05T05:03:46;19.00;38.50
32753;DHT22;19121;52.428;10.816;2023-04-05T05:06:15;19.00;38.50
32753;DHT22;19121;52.428;10.816;2023-04-05T05:08:40;19.00;38.50
32753;DHT22;19121;52.428;10.816;2023-04-05T05:11:06;19.00;38.50
32753;DHT22;19121;52.428;10.816;2023-04-05T05:13:31;19.00;38.50
32753;DHT22;19121;52.428;10.816;2023-04-05T05:15:57;19.00;38.50
32753;DHT22;19121;52.428;10.816;2023-04-05T05:18:24;19.00;38.40
32753;DHT22;19121;52.428;10.816;2023-04-05T05:20:50;19.00;38.40
32753;DHT22;19121;52.428;10.816;2023-04-05T05:23:16;19.00;38.40
32753;DHT22;19121;52.428;10.816;2023-04-05T05:25:42;19.00;38.30
32753;DHT22;19121;52.428;10.816;2023-04-05T05:28:07;19.00;38.30
32753;DHT22;19121;52.428;10.816;2023-04-05T05:30:33;19.00;38.20
32753;DHT22;19121;52.428;10.816;2023-04-05T05:32:58;19.00;38.20
32753;DHT22;19121;52.428;10.816;2023-04-05T05:35:24;19.00;38.20
32753;DHT22;19121;52.428;10.816;2023-04-05T05:37:49;19.10;38.10
32753;DHT22;19121;52.428;10.816;2023-04-05T05:40:15;19.10;38.00
32753;DHT22;19121;52.428;10.816;2023-04-05T05:42:40;19.10;38.10
32753;DHT22;19121;52.428;10.816;2023-04-05T05:45:06;19.10;38.00
32753;DHT22;19121;52.428;10.816;2023-04-05T05:47:32;19.10;37.90
32753;DHT22;19121;52.428;10.816;2023-04-05T05:49:57;19.10;37.90
32753;DHT22;19121;52.428;10.816;2023-04-05T05:52:23;19.10;38.00
32753;DHT22;19121;52.428;10.816;2023-04-05T05:54:48;19.20;38.10
32753;DHT22;19121;52.428;10.816;2023-04-05T05:57:14;19.20;37.80
32753;DHT22;19121;52.428;10.816;2023-04-05T05:59:39;19.20;37.60
32753;DHT22;19121;52.428;10.816;2023-04-05T06:02:05;19.30;37.50
32753;DHT22;19121;52.428;10.816;2023-04-05T06:04:31;19.30;37.30
32753;DHT22;19121;52.428;10.816;2023-04-05T06:06:58;19.40;37.80
32753;DHT22;19121;52.428;10.816;2023-04-05T06:09:25;19.40;37.20
32753;DHT22;19121;52.428;10.816;2023-04-05T06:11:51;19.50;37.20
32753;DHT22;19121;52.428;10.816;2023-04-05T06:14:16;19.50;37.20
32753;DHT22;19121;52.428;10.816;2023-04-05T06:16:42;19.60;37.30
32753;DHT22;19121;52.428;10.816;2023-04-05T06:19:07;19.60;37.10
32753;DHT22;19121;52.428;10.816;2023-04-05T06:21:32;19.70;37.20
32753;DHT22;19121;52.428;10.816;2023-04-05T06:23:58;19.70;37.30
32753;DHT22;19121;52.428;10.816;2023-04-05T06:26:23;19.80;37.50
32753;DHT22;19121;52.428;10.816;2023-04-05T06:28:51;19.90;37.50
32753;DHT22;19121;52.428;10.816;2023-04-05T06:31:19;19.90;37.40
32753;DHT22;19121;52.428;10.816;2023-04-05T06:33:45;20.00;37.50
32753;DHT22;19121;52.428;10.816;2023-04-05T06:36:10;20.00;37.40
32753;DHT22;19121;52.428;10.816;2023-04-05T06:38:35;20.10;37.60
32753;DHT22;19121;52.428;10.816;2023-04-05T06:41:01;20.10;37.70
32753;DHT22;19121;52.428;10.816;2023-04-05T06:43:27;20.20;37.70
32753;DHT22;19121;52.428;10.816;2023-04-05T06:45:54;20.20;37.40
32753;DHT22;19121;52.428;10.816;2023-04-05T06:48:19;20.30;37.40
32753;DHT22;19121;52.428;10.816;2023-04-05T06:50:45;20.30;37.50
32753;DHT22;19121;52.428;10.816;2023-04-05T06:53:11;20.40;37.90
32753;DHT22;19121;52.428;10.816;2023-04-05T06:55:39;20.40;38.00
32753;DHT22;19121;52.428;10.816;2023-04-05T06:58:04;20.50;38.60
32753;DHT22;19121;52.428;10.816;2023-04-05T07:00:30;20.50;38.80
32753;DHT22;19121;52.428;10.816;2023-04-05T07:02:56;20.60;38.60
32753;DHT22;19121;52.428;10.816;2023-04-05T07:05:21;20.60;38.50
32753;DHT22;19121;52.428;10.816;2023-04-05T07:07:47;20.70;38.40
32753;DHT22;19121;52.428;10.816;2023-04-05T07:10:13;20.80;38.30
32753;DHT22;19121;52.428;10.816;2023-04-05T07:12:38;20.80;37.90
32753;DHT22;19121;52.428;10.816;2023-04-05T07:15:04;20.80;37.80
32753;DHT22;19121;52.428;10.816;2023-04-05T07:17:30;20.90;37.70
32753;DHT22;19121;52.428;10.816;2023-04-05T07:19:56;20.90;37.80
32753;DHT22;19121;52.428;10.816;2023-04-05T07:22:21;21.00;37.30
32753;DHT22;19121;52.428;10.816;2023-04-05T07:24:46;21.00;37.10
32753;DHT22;19121;52.428;10.816;2023-04-05T07:27:13;21.00;37.20
32753;DHT22;19121;52.428;10.816;2023-04-05T07:29:38;21.10;37.10
32753;DHT22;19121;52.428;10.816;2023-04-05T07:32:07;21.10;36.80
32753;DHT22;19121;52.428;10.816;2023-04-05T07:34:32;21.10;36.60
32753;DHT22;19121;52.428;10.816;2023-04-05T07:36:58;21.20;36.50
32753;DHT22;19121;52.428;10.816;2023-04-05T07:39:23;21.30;36.50
32753;DHT22;19121;52.428;10.816;2023-04-05T07:41:49;21.30;36.60
32753;DHT22;19121;52.428;10.816;2023-04-05T07:44:15;21.40;36.60
32753;DHT22;19121;52.428;10.816;2023-04-05T07:46:41;21.40;36.50
32753;DHT22;19121;52.428;10.816;2023-04-05T07:49:09;21.50;36.30
32753;DHT22;19121;52.428;10.816;2023-04-05T07:51:35;21.50;36.50
32753;DHT22;19121;52.428;10.816;2023-04-05T07:54:02;21.60;36.50
32753;DHT22;19121;52.428;10.816;2023-04-05T07:56:29;21.60;36.50
32753;DHT22;19121;52.428;10.816;2023-04-05T07:58:55;21.60;36.40
32753;DHT22;19121;52.428;10.816;2023-04-05T08:01:21;21.70;36.20
32753;DHT22;19121;52.428;10.816;2023-04-05T08:03:51;21.80;36.40
32753;DHT22;19121;52.428;10.816;2023-04-05T08:06:17;21.80;36.20
32753;DHT22;19121;52.428;10.816;2023-04-05T08:08:43;21.80;36.40
32753;DHT22;19121;52.428;10.816;2023-04-05T08:11:09;21.90;36.10
32753;DHT22;19121;52.428;10.816;2023-04-05T08:13:34;21.90;36.10
32753;DHT22;19121;52.428;10.816;2023-04-05T08:16:01;22.00;35.90
32753;DHT22;19121;52.428;10.816;2023-04-05T08:18:26;22.00;35.80
32753;DHT22;19121;52.428;10.816;2023-04-05T08:20:55;22.00;35.70
32753;DHT22;19121;52.428;10.816;2023-04-05T08:23:20;22.10;35.70
32753;DHT22;19121;52.428;10.816;2023-04-05T08:25:46;22.10;35.80
32753;DHT22;19121;52.428;10.816;2023-04-05T08:28:12;22.10;36.10
32753;DHT22;19121;52.428;10.816;2023-04-05T08:30:37;22.10;36.10
32753;DHT22;19121;52.428;10.816;2023-04-05T08:33:03;22.10;35.90
32753;DHT22;19121;52.428;10.816;2023-04-05T08:35:29;22.20;35.80
32753;DHT22;19121;52.428;10.816;2023-04-05T08:37:54;22.20;35.70
32753;DHT22;19121;52.428;10.816;2023-04-05T08:40:20;22.20;36.40
32753;DHT22;19121;52.428;10.816;2023-04-05T08:43:32;22.20;36.10
32753;DHT22;19121;52.428;10.816;2023-04-05T08:45:32;22.30;36.10
32753;DHT22;19121;52.428;10.816;2023-04-05T08:47:58;22.30;35.80
32753;DHT22;19121;52.428;10.816;2023-04-05T08:50:23;22.30;35.70
32753;DHT22;19121;52.428;10.816;2023-04-05T08:52:49;22.30;35.70
32753;DHT22;19121;52.428;10.816;2023-04-05T08:55:15;22.30;35.80
32753;DHT22;19121;52.428;10.816;2023-04-05T08:57:42;22.30;36.20
32753;DHT22;19121;52.428;10.816;2023-04-05T09:00:08;22.30;36.20
32753;DHT22;19121;52.428;10.816;2023-04-05T09:02:34;22.30;36.00
32753;DHT22;19121;52.428;10.816;2023-04-05T09:05:01;22.30;36.00
32753;DHT22;19121;52.428;10.816;2023-04-05T09:07:26;22.30;35.80
32753;DHT22;19121;52.428;10.816;2023-04-05T09:09:53;22.40;35.80
32753;DHT22;19121;52.428;10.816;2023-04-05T09:12:19;22.40;35.60
32753;DHT22;19121;52.428;10.816;2023-04-05T09:14:46;22.30;35.40
32753;DHT22;19121;52.428;10.816;2023-04-05T09:17:12;22.30;35.50
32753;DHT22;19121;52.428;10.816;2023-04-05T09:19:39;22.30;35.70
32753;DHT22;19121;52.428;10.816;2023-04-05T09:22:05;22.30;35.80
32753;DHT22;19121;52.428;10.816;2023-04-05T09:24:38;22.30;35.80
32753;DHT22;19121;52.428;10.816;2023-04-05T09:29:31;22.30;35.70
32753;DHT22;19121;52.428;10.816;2023-04-05T09:31:56;22.30;35.60
32753;DHT22;19121;52.428;10.816;2023-04-05T09:34:21;22.30;35.50
32753;DHT22;19121;52.428;10.816;2023-04-05T09:36:48;22.30;35.60
32753;DHT22;19121;52.428;10.816;2023-04-05T09:39:13;22.30;35.50
32753;DHT22;19121;52.428;10.816;2023-04-05T09:41:40;22.20;35.40
32753;DHT22;19121;52.428;10.816;2023-04-05T09:44:06;22.20;35.40
32753;DHT22;19121;52.428;10.816;2023-04-05T09:46:32;22.20;35.30
32753;DHT22;19121;52.428;10.816;2023-04-05T09:48:58;22.20;35.40
32753;DHT22;19121;52.428;10.816;2023-04-05T09:51:30;22.20;35.30
32753;DHT22;19121;52.428;10.816;2023-04-05T09:53:59;22.20;35.30
32753;DHT22;19121;52.428;10.816;2023-04-05T09:56:26;22.30;35.30
32753;DHT22;19121;52.428;10.816;2023-04-05T09:58:52;22.30;35.30
32753;DHT22;19121;52.428;10.816;2023-04-05T10:01:18;22.20;35.30
32753;DHT22;19121;52.428;10.816;2023-04-05T10:03:49;22.20;35.40
32753;DHT22;19121;52.428;10.816;2023-04-05T10:06:15;22.20;35.50
32753;DHT22;19121;52.428;10.816;2023-04-05T10:08:41;22.20;35.60
32753;DHT22;19121;52.428;10.816;2023-04-05T10:11:06;22.20;35.50
32753;DHT22;19121;52.428;10.816;2023-04-05T10:13:33;22.30;35.70
32753;DHT22;19121;52.428;10.816;2023-04-05T10:15:59;22.30;35.70
32753;DHT22;19121;52.428;10.816;2023-04-05T10:18:27;22.20;35.60
32753;DHT22;19121;52.428;10.816;2023-04-05T10:20:53;22.30;35.70
32753;DHT22;19121;52.428;10.816;2023-04-05T10:23:26;22.30;35.50
32753;DHT22;19121;52.428;10.816;2023-04-05T10:28:25;22.40;35.50
32753;DHT22;19121;52.428;10.816;2023-04-05T10:30:56;22.40;35.30
32753;DHT22;19121;52.428;10.816;2023-04-05T10:33:31;22.40;35.20
32753;DHT22;19121;52.428;10.816;2023-04-05T10:38:26;22.40;35.30
32753;DHT22;19121;52.428;10.816;2023-04-05T10:41:13;22.40;35.30
32753;DHT22;19121;52.428;10.816;2023-04-05T10:43:39;22.40;35.40
32753;DHT22;19121;52.428;10.816;2023-04-05T10:46:05;22.40;35.20
32753;DHT22;19121;52.428;10.816;2023-04-05T10:48:43;22.50;35.20
32753;DHT22;19121;52.428;10.816;2023-04-05T10:51:12;22.50;35.30
32753;DHT22;19121;52.428;10.816;2023-04-05T10:53:39;22.50;35.30
32753;DHT22;19121;52.428;10.816;2023-04-05T10:56:05;22.50;35.10
32753;DHT22;19121;52.428;10.816;2023-04-05T10:58:30;22.50;35.10
32753;DHT22;19121;52.428;10.816;2023-04-05T11:00:56;22.40;34.90
32753;DHT22;19121;52.428;10.816;2023-04-05T11:03:41;22.40;35.00
32753;DHT22;19121;52.428;10.816;2023-04-05T11:06:22;22.40;34.90
32753;DHT22;19121;52.428;10.816;2023-04-05T11:08:50;22.30;34.90
32753;DHT22;19121;52.428;10.816;2023-04-05T11:11:17;22.30;35.00
32753;DHT22;19121;52.428;10.816;2023-04-05T11:13:56;22.30;35.00
32753;DHT22;19121;52.428;10.816;2023-04-05T11:16:22;22.30;34.90
32753;DHT22;19121;52.428;10.816;2023-04-05T11:18:48;22.30;35.00
32753;DHT22;19121;52.428;10.816;2023-04-05T11:21:24;22.30;35.00
32753;DHT22;19121;52.428;10.816;2023-04-05T11:27:10;22.30;35.00
32753;DHT22;19121;52.428;10.816;2023-04-05T11:29:17;22.30;35.00
32753;DHT22;19121;52.428;10.816;2023-04-05T11:31:58;22.30;35.10
32753;DHT22;19121;52.428;10.816;2023-04-05T11:34:24;22.20;35.10
32753;DHT22;19121;52.428;10.816;2023-04-05T11:36:50;22.20;35.10
32753;DHT22;19121;52.428;10.816;2023-04-05T11:41:52;22.20;35.20
32753;DHT22;19121;52.428;10.816;2023-04-05T11:44:17;22.20;35.20
32753;DHT22;19121;52.428;10.816;2023-04-05T11:46:46;22.20;35.20
32753;DHT22;19121;52.428;10.816;2023-04-05T11:49:12;22.20;35.10
32753;DHT22;19121;52.428;10.816;2023-04-05T11:51:39;22.20;35.10
32753;DHT22;19121;52.428;10.816;2023-04-05T11:54:06;22.10;34.90
32753;DHT22;19121;52.428;10.816;2023-04-05T11:56:32;22.10;34.90
32753;DHT22;19121;52.428;10.816;2023-04-05T11:58:57;22.00;34.60
32753;DHT22;19121;52.428;10.816;2023-04-05T12:01:23;22.00;34.50
32753;DHT22;19121;52.428;10.816;2023-04-05T12:03:52;22.00;34.10
32753;DHT22;19121;52.428;10.816;2023-04-05T12:06:20;22.00;33.80
32753;DHT22;19121;52.428;10.816;2023-04-05T12:08:45;22.00;33.60
32753;DHT22;19121;52.428;10.816;2023-04-05T12:11:15;22.00;33.40
32753;DHT22;19121;52.428;10.816;2023-04-05T12:13:41;22.00;33.40
32753;DHT22;19121;52.428;10.816;2023-04-05T12:16:07;22.00;33.30
32753;DHT22;19121;52.428;10.816;2023-04-05T12:18:34;21.90;33.10
32753;DHT22;19121;52.428;10.816;2023-04-05T12:21:17;21.90;33.00
32753;DHT22;19121;52.428;10.816;2023-04-05T12:23:43;22.00;33.10
32753;DHT22;19121;52.428;10.816;2023-04-05T12:26:08;21.90;33.00
32753;DHT22;19121;52.428;10.816;2023-04-05T12:28:53;22.00;33.00
32753;DHT22;19121;52.428;10.816;2023-04-05T12:31:34;21.90;33.00
32753;DHT22;19121;52.428;10.816;2023-04-05T12:34:00;21.90;33.10
32753;DHT22;19121;52.428;10.816;2023-04-05T12:36:29;21.90;33.10
32753;DHT22;19121;52.428;10.816;2023-04-05T12:38:55;21.90;33.10
32753;DHT22;19121;52.428;10.816;2023-04-05T12:41:30;21.90;33.10
32753;DHT22;19121;52.428;10.816;2023-04-05T12:43:55;21.90;33.20
32753;DHT22;19121;52.428;10.816;2023-04-05T12:46:38;21.90;33.20
32753;DHT22;19121;52.428;10.816;2023-04-05T12:49:10;21.90;33.20
32753;DHT22;19121;52.428;10.816;2023-04-05T12:51:36;21.90;33.30
32753;DHT22;19121;52.428;10.816;2023-04-05T12:54:02;21.90;33.40
32753;DHT22;19121;52.428;10.816;2023-04-05T12:56:28;21.80;33.40
32753;DHT22;19121;52.428;10.816;2023-04-05T12:58:54;21.90;33.60
32753;DHT22;19121;52.428;10.816;2023-04-05T13:01:20;21.80;33.50
32753;DHT22;19121;52.428;10.816;2023-04-05T13:03:45;21.80;33.60
32753;DHT22;19121;52.428;10.816;2023-04-05T13:06:11;21.80;33.70
32753;DHT22;19121;52.428;10.816;2023-04-05T13:08:36;21.80;33.70
32753;DHT22;19121;52.428;10.816;2023-04-05T13:11:02;21.80;33.80
32753;DHT22;19121;52.428;10.816;2023-04-05T13:13:27;21.80;33.70
32753;DHT22;19121;52.428;10.816;2023-04-05T13:15:52;21.80;33.80
32753;DHT22;19121;52.428;10.816;2023-04-05T13:18:18;21.80;33.90
32753;DHT22;19121;52.428;10.816;2023-04-05T13:20:44;21.80;34.50
32753;DHT22;19121;52.428;10.816;2023-04-05T13:23:09;21.80;33.90
32753;DHT22;19121;52.428;10.816;2023-04-05T13:25:36;21.70;33.90
32753;DHT22;19121;52.428;10.816;2023-04-05T13:28:02;21.80;34.10
32753;DHT22;19121;52.428;10.816;2023-04-05T13:30:28;21.70;34.00
32753;DHT22;19121;52.428;10.816;2023-04-05T13:32:54;21.70;34.00
32753;DHT22;19121;52.428;10.816;2023-04-05T13:35:20;21.70;34.10
32753;DHT22;19121;52.428;10.816;2023-04-05T13:37:45;21.70;34.00
32753;DHT22;19121;52.428;10.816;2023-04-05T13:40:11;21.70;34.10
32753;DHT22;19121;52.428;10.816;2023-04-05T13:42:36;21.70;34.10
32753;DHT22;19121;52.428;10.816;2023-04-05T13:45:03;21.70;34.20
32753;DHT22;19121;52.428;10.816;2023-04-05T13:47:28;21.70;34.10
32753;DHT22;19121;52.428;10.816;2023-04-05T13:49:54;21.70;34.20
32753;DHT22;19121;52.428;10.816;2023-04-05T13:52:20;21.70;34.10
32753;DHT22;19121;52.428;10.816;2023-04-05T13:54:45;21.70;34.20
32753;DHT22;19121;52.428;10.816;2023-04-05T13:57:10;21.60;34.20
32753;DHT22;19121;52.428;10.816;2023-04-05T13:59:37;21.60;34.80
32753;DHT22;19121;52.428;10.816;2023-04-05T14:02:03;21.60;34.20
32753;DHT22;19121;52.428;10.816;2023-04-05T14:04:28;21.60;34.20
32753;DHT22;19121;52.428;10.816;2023-04-05T14:06:54;21.60;34.30
32753;DHT22;19121;52.428;10.816;2023-04-05T14:09:19;21.60;34.20
32753;DHT22;19121;52.428;10.816;2023-04-05T14:11:45;21.60;34.20
32753;DHT22;19121;52.428;10.816;2023-04-05T14:14:10;21.60;34.30
32753;DHT22;19121;52.428;10.816;2023-04-05T14:16:36;21.50;34.20
32753;DHT22;19121;52.428;10.816;2023-04-05T14:19:02;21.50;34.20
32753;DHT22;19121;52.428;10.816;2023-04-05T14:21:28;21.50;34.20
32753;DHT22;19121;52.428;10.816;2023-04-05T14:23:53;21.50;34.20
32753;DHT22;19121;52.428;10.816;2023-04-05T14:26:21;21.50;34.20
32753;DHT22;19121;52.428;10.816;2023-04-05T14:28:47;21.50;34.30
32753;DHT22;19121;52.428;10.816;2023-04-05T14:31:12;21.50;34.30
32753;DHT22;19121;52.428;10.816;2023-04-05T14:33:38;21.50;34.20
32753;DHT22;19121;52.428;10.816;2023-04-05T14:36:03;21.50;34.20
32753;DHT22;19121;52.428;10.816;2023-04-05T14:38:29;21.50;34.30
32753;DHT22;19121;52.428;10.816;2023-04-05T14:40:54;21.50;34.20
32753;DHT22;19121;52.428;10.816;2023-04-05T14:43:20;21.50;34.20
32753;DHT22;19121;52.428;10.816;2023-04-05T14:45:45;21.50;34.20
32753;DHT22;19121;52.428;10.816;2023-04-05T14:48:11;21.50;34.20
32753;DHT22;19121;52.428;10.816;2023-04-05T14:50:36;21.50;34.20
32753;DHT22;19121;52.428;10.816;2023-04-05T14:53:02;21.50;34.20
32753;DHT22;19121;52.428;10.816;2023-04-05T14:55:27;21.50;34.20
32753;DHT22;19121;52.428;10.816;2023-04-05T14:57:53;21.50;34.20
32753;DHT22;19121;52.428;10.816;2023-04-05T15:00:18;21.50;34.20
32753;DHT22;19121;52.428;10.816;2023-04-05T15:02:44;21.50;34.20
32753;DHT22;19121;52.428;10.816;2023-04-05T15:05:10;21.50;34.20
32753;DHT22;19121;52.428;10.816;2023-04-05T15:07:36;21.50;34.30
32753;DHT22;19121;52.428;10.816;2023-04-05T15:10:01;21.50;34.20
32753;DHT22;19121;52.428;10.816;2023-04-05T15:12:27;21.50;34.20
32753;DHT22;19121;52.428;10.816;2023-04-05T15:14:52;21.40;34.10
32753;DHT22;19121;52.428;10.816;2023-04-05T15:17:19;21.50;34.00
32753;DHT22;19121;52.428;10.816;2023-04-05T15:19:44;21.50;33.90
32753;DHT22;19121;52.428;10.816;2023-04-05T15:22:10;21.40;33.80
32753;DHT22;19121;52.428;10.816;2023-04-05T15:24:35;21.50;33.80
32753;DHT22;19121;52.428;10.816;2023-04-05T15:27:01;21.50;33.80
32753;DHT22;19121;52.428;10.816;2023-04-05T15:29:27;21.40;33.80
32753;DHT22;19121;52.428;10.816;2023-04-05T15:31:53;21.40;33.80